sensor_id;sensor_type;location;lat;lon;timestamp;pressure;altitude;pressure_sealevel;temperature;humidity
80248;BME280;69560;52.206;21.018;2023-08-06T00:00:26;99075.36;;;21.83;66.06
80248;BME280;69560;52.206;21.018;2023-08-06T00:03:12;99066.33;;;21.81;66.20
80248;BME280;69560;52.206;21.018;2023-08-06T00:05:42;99062.16;;;21.80;66.21
80248;BME280;69560;52.206;21.018;2023-08-06T00:08:09;99062.79;;;21.81;66.11
80248;BME280;69560;52.206;21.018;2023-08-06T00:10:35;99057.30;;;21.79;66.03
80248;BME280;69560;52.206;21.018;2023-08-06T00:13:02;99052.47;;;21.79;66.21
80248;BME280;69560;52.206;21.018;2023-08-06T00:15:28;99049.23;;;21.79;66.14
80248;BME280;69560;52.206;21.018;2023-08-06T00:17:55;99050.63;;;21.79;66.23
80248;BME280;69560;52.206;21.018;2023-08-06T00:20:21;99062.44;;;21.77;66.27
80248;BME280;69560;52.206;21.018;2023-08-06T00:22:47;99076.02;;;21.73;66.34
80248;BME280;69560;52.206;21.018;2023-08-06T00:25:14;99094.85;;;21.67;66.24
80248;BME280;69560;52.206;21.018;2023-08-06T00:27:40;99088.48;;;21.61;66.44
80248;BME280;69560;52.206;21.018;2023-08-06T00:30:07;99080.75;;;21.61;66.69
80248;BME280;69560;52.206;21.018;2023-08-06T00:32:33;99069.12;;;21.62;66.82
80248;BME280;69560;52.206;21.018;2023-08-06T00:35:00;99058.73;;;21.63;66.79
80248;BME280;69560;52.206;21.018;2023-08-06T00:37:26;99056.64;;;21.63;66.97
80248;BME280;69560;52.206;21.018;2023-08-06T00:39:53;99044.73;;;21.61;66.73
80248;BME280;69560;52.206;21.018;2023-08-06T00:42:19;99044.41;;;21.58;66.76
80248;BME280;69560;52.206;21.018;2023-08-06T00:44:47;99044.63;;;21.53;66.81
80248;BME280;69560;52.206;21.018;2023-08-06T00:47:13;99046.08;;;21.54;66.96
80248;BME280;69560;52.206;21.018;2023-08-06T00:49:40;99036.95;;;21.52;67.05
80248;BME280;69560;52.206;21.018;2023-08-06T00:52:08;99028.88;;;21.53;67.18
80248;BME280;69560;52.206;21.018;2023-08-06T00:54:34;99019.59;;;21.49;67.26
80248;BME280;69560;52.206;21.018;2023-08-06T00:57:02;99008.30;;;21.47;67.32
80248;BME280;69560;52.206;21.018;2023-08-06T00:59:31;99000.48;;;21.46;67.34
80248;BME280;69560;52.206;21.018;2023-08-06T01:01:57;98999.30;;;21.47;67.38
80248;BME280;69560;52.206;21.018;2023-08-06T01:04:23;98993.63;;;21.47;67.40
80248;BME280;69560;52.206;21.018;2023-08-06T01:10:15;98975.67;;;21.51;67.36
80248;BME280;69560;52.206;21.018;2023-08-06T01:12:52;98975.52;;;21.51;67.20
80248;BME280;69560;52.206;21.018;2023-08-06T01:15:29;98963.58;;;21.53;67.49
80248;BME280;69560;52.206;21.018;2023-08-06T01:17:59;98956.14;;;21.55;67.47
80248;BME280;69560;52.206;21.018;2023-08-06T01:20:30;98951.85;;;21.56;67.50
80248;BME280;69560;52.206;21.018;2023-08-06T01:22:57;98937.89;;;21.54;67.27
80248;BME280;69560;52.206;21.018;2023-08-06T01:25:29;98918.79;;;21.51;67.32
80248;BME280;69560;52.206;21.018;2023-08-06T01:28:12;98896.81;;;21.50;67.52
80248;BME280;69560;52.206;21.018;2023-08-06T01:30:41;98878.39;;;21.51;67.50
80248;BME280;69560;52.206;21.018;2023-08-06T01:35:49;98864.06;;;21.57;67.48
80248;BME280;69560;52.206;21.018;2023-08-06T01:38:16;98854.60;;;21.58;67.47
80248;BME280;69560;52.206;21.018;2023-08-06T01:40:43;98850.26;;;21.53;67.38
80248;BME280;69560;52.206;21.018;2023-08-06T01:43:10;98839.96;;;21.49;67.40
80248;BME280;69560;52.206;21.018;2023-08-06T01:45:37;98840.22;;;21.47;67.53
80248;BME280;69560;52.206;21.018;2023-08-06T01:48:03;98832.85;;;21.46;67.43
80248;BME280;69560;52.206;21.018;2023-08-06T01:50:29;98823.35;;;21.45;67.51
80248;BME280;69560;52.206;21.018;2023-08-06T01:52:56;98812.45;;;21.44;67.54
80248;BME280;69560;52.206;21.018;2023-08-06T01:55:22;98809.86;;;21.43;67.52
80248;BME280;69560;52.206;21.018;2023-08-06T01:57:49;98811.53;;;21.47;67.69
80248;BME280;69560;52.206;21.018;2023-08-06T02:00:15;98811.68;;;21.50;67.71
80248;BME280;69560;52.206;21.018;2023-08-06T02:02:42;98815.09;;;21.51;67.62
80248;BME280;69560;52.206;21.018;2023-08-06T02:05:08;98815.02;;;21.48;67.59
80248;BME280;69560;52.206;21.018;2023-08-06T02:07:34;98808.66;;;21.46;67.60
80248;BME280;69560;52.206;21.018;2023-08-06T02:10:01;98804.18;;;21.43;67.59
80248;BME280;69560;52.206;21.018;2023-08-06T02:12:27;98807.00;;;21.45;67.63
80248;BME280;69560;52.206;21.018;2023-08-06T02:14:54;98805.90;;;21.45;67.65
80248;BME280;69560;52.206;21.018;2023-08-06T02:17:20;98796.61;;;21.47;67.68
80248;BME280;69560;52.206;21.018;2023-08-06T02:19:47;98786.69;;;21.48;67.68
80248;BME280;69560;52.206;21.018;2023-08-06T02:22:13;98781.36;;;21.50;67.70
80248;BME280;69560;52.206;21.018;2023-08-06T02:24:39;98774.16;;;21.53;67.70
80248;BME280;69560;52.206;21.018;2023-08-06T02:27:07;98772.64;;;21.54;67.68
80248;BME280;69560;52.206;21.018;2023-08-06T02:29:34;98768.10;;;21.53;67.68
80248;BME280;69560;52.206;21.018;2023-08-06T02:32:00;98766.70;;;21.53;67.76
80248;BME280;69560;52.206;21.018;2023-08-06T02:34:28;98768.25;;;21.53;67.82
80248;BME280;69560;52.206;21.018;2023-08-06T02:36:55;98777.10;;;21.54;67.90
80248;BME280;69560;52.206;21.018;2023-08-06T02:39:21;98776.05;;;21.55;67.78
80248;BME280;69560;52.206;21.018;2023-08-06T02:41:48;98776.98;;;21.56;67.76
80248;BME280;69560;52.206;21.018;2023-08-06T02:44:14;98762.17;;;21.52;67.76
80248;BME280;69560;52.206;21.018;2023-08-06T02:46:41;98766.69;;;21.57;67.75
80248;BME280;69560;52.206;21.018;2023-08-06T02:49:07;98767.41;;;21.57;67.77
80248;BME280;69560;52.206;21.018;2023-08-06T02:51:34;98770.39;;;21.57;67.78
80248;BME280;69560;52.206;21.018;2023-08-06T02:54:01;98762.48;;;21.58;67.75
80248;BME280;69560;52.206;21.018;2023-08-06T02:56:27;98759.73;;;21.57;67.84
80248;BME280;69560;52.206;21.018;2023-08-06T02:58:53;98753.88;;;21.57;67.88
80248;BME280;69560;52.206;21.018;2023-08-06T03:01:20;98752.19;;;21.57;67.89
80248;BME280;69560;52.206;21.018;2023-08-06T03:03:46;98748.83;;;21.56;68.04
80248;BME280;69560;52.206;21.018;2023-08-06T03:06:13;98742.59;;;21.57;67.99
80248;BME280;69560;52.206;21.018;2023-08-06T03:08:39;98729.65;;;21.58;67.88
80248;BME280;69560;52.206;21.018;2023-08-06T03:11:06;98719.01;;;21.60;68.04
80248;BME280;69560;52.206;21.018;2023-08-06T03:13:32;98714.48;;;21.62;67.96
80248;BME280;69560;52.206;21.018;2023-08-06T03:15:59;98709.73;;;21.63;67.96
80248;BME280;69560;52.206;21.018;2023-08-06T03:18:26;98702.50;;;21.65;67.95
80248;BME280;69560;52.206;21.018;2023-08-06T03:20:53;98695.36;;;21.64;67.90
80248;BME280;69560;52.206;21.018;2023-08-06T03:23:19;98690.38;;;21.62;67.94
80248;BME280;69560;52.206;21.018;2023-08-06T03:25:46;98690.67;;;21.61;68.03
80248;BME280;69560;52.206;21.018;2023-08-06T03:28:12;98692.23;;;21.60;68.09
80248;BME280;69560;52.206;21.018;2023-08-06T03:30:39;98690.04;;;21.61;68.06
80248;BME280;69560;52.206;21.018;2023-08-06T03:33:05;98686.05;;;21.61;68.08
80248;BME280;69560;52.206;21.018;2023-08-06T03:35:32;98675.53;;;21.64;68.23
80248;BME280;69560;52.206;21.018;2023-08-06T03:37:58;98667.92;;;21.65;68.05
80248;BME280;69560;52.206;21.018;2023-08-06T03:40:25;98665.25;;;21.66;68.17
80248;BME280;69560;52.206;21.018;2023-08-06T03:42:51;98655.80;;;21.68;68.09
80248;BME280;69560;52.206;21.018;2023-08-06T03:45:18;98647.00;;;21.70;68.12
80248;BME280;69560;52.206;21.018;2023-08-06T03:47:44;98643.83;;;21.72;68.15
80248;BME280;69560;52.206;21.018;2023-08-06T03:50:11;98638.73;;;21.74;68.11
80248;BME280;69560;52.206;21.018;2023-08-06T03:52:38;98632.98;;;21.74;68.16
80248;BME280;69560;52.206;21.018;2023-08-06T03:55:04;98625.90;;;21.74;68.14
80248;BME280;69560;52.206;21.018;2023-08-06T03:57:31;98622.42;;;21.73;68.19
80248;BME280;69560;52.206;21.018;2023-08-06T03:59:57;98615.88;;;21.73;68.19
80248;BME280;69560;52.206;21.018;2023-08-06T04:02:23;98610.36;;;21.74;68.15
80248;BME280;69560;52.206;21.018;2023-08-06T04:04:50;98607.14;;;21.75;68.15
80248;BME280;69560;52.206;21.018;2023-08-06T04:07:19;98605.73;;;21.76;68.13
80248;BME280;69560;52.206;21.018;2023-08-06T04:09:57;98598.23;;;21.78;68.24
80248;BME280;69560;52.206;21.018;2023-08-06T04:12:24;98592.35;;;21.79;68.20
80248;BME280;69560;52.206;21.018;2023-08-06T04:14:51;98586.46;;;21.81;68.26
80248;BME280;69560;52.206;21.018;2023-08-06T04:17:21;98586.73;;;21.82;68.15
80248;BME280;69560;52.206;21.018;2023-08-06T04:19:50;98578.81;;;21.83;68.28
80248;BME280;69560;52.206;21.018;2023-08-06T04:22:17;98578.75;;;21.82;68.27
80248;BME280;69560;52.206;21.018;2023-08-06T04:24:44;98580.60;;;21.81;68.34
80248;BME280;69560;52.206;21.018;2023-08-06T04:27:12;98576.80;;;21.79;68.39
80248;BME280;69560;52.206;21.018;2023-08-06T04:29:39;98576.14;;;21.81;68.30
80248;BME280;69560;52.206;21.018;2023-08-06T04:32:08;98572.88;;;21.82;68.39
80248;BME280;69560;52.206;21.018;2023-08-06T04:34:35;98568.73;;;21.84;68.30
80248;BME280;69560;52.206;21.018;2023-08-06T04:37:03;98561.08;;;21.87;68.41
80248;BME280;69560;52.206;21.018;2023-08-06T04:39:30;98554.77;;;21.89;68.35
80248;BME280;69560;52.206;21.018;2023-08-06T04:41:56;98553.05;;;21.91;68.38
80248;BME280;69560;52.206;21.018;2023-08-06T04:44:24;98554.46;;;21.93;68.38
80248;BME280;69560;52.206;21.018;2023-08-06T04:46:50;98548.02;;;21.94;68.34
80248;BME280;69560;52.206;21.018;2023-08-06T04:49:19;98540.91;;;21.98;68.38
80248;BME280;69560;52.206;21.018;2023-08-06T04:51:45;98543.42;;;22.00;68.42
80248;BME280;69560;52.206;21.018;2023-08-06T04:54:12;98540.27;;;22.02;68.48
80248;BME280;69560;52.206;21.018;2023-08-06T04:56:38;98539.66;;;22.03;68.49
80248;BME280;69560;52.206;21.018;2023-08-06T04:59:05;98533.04;;;22.04;68.50
80248;BME280;69560;52.206;21.018;2023-08-06T05:01:32;98534.39;;;22.06;68.52
80248;BME280;69560;52.206;21.018;2023-08-06T05:03:58;98529.09;;;22.07;68.54
80248;BME280;69560;52.206;21.018;2023-08-06T05:06:25;98523.63;;;22.10;68.47
80248;BME280;69560;52.206;21.018;2023-08-06T05:08:51;98518.80;;;22.12;68.30
80248;BME280;69560;52.206;21.018;2023-08-06T05:11:17;98513.74;;;22.16;68.46
80248;BME280;69560;52.206;21.018;2023-08-06T05:13:44;98508.16;;;22.21;68.54
80248;BME280;69560;52.206;21.018;2023-08-06T05:16:10;98504.76;;;22.25;68.56
80248;BME280;69560;52.206;21.018;2023-08-06T05:18:37;98507.33;;;22.29;68.50
80248;BME280;69560;52.206;21.018;2023-08-06T05:21:04;98505.73;;;22.31;68.39
80248;BME280;69560;52.206;21.018;2023-08-06T05:23:30;98509.23;;;22.35;68.63
80248;BME280;69560;52.206;21.018;2023-08-06T05:25:57;98504.90;;;22.37;68.36
80248;BME280;69560;52.206;21.018;2023-08-06T05:28:23;98496.41;;;22.42;68.39
80248;BME280;69560;52.206;21.018;2023-08-06T05:30:49;98495.55;;;22.47;68.43
80248;BME280;69560;52.206;21.018;2023-08-06T05:33:16;98490.98;;;22.53;68.31
80248;BME280;69560;52.206;21.018;2023-08-06T05:35:42;98489.64;;;22.58;68.27
80248;BME280;69560;52.206;21.018;2023-08-06T05:38:09;98488.41;;;22.64;68.22
80248;BME280;69560;52.206;21.018;2023-08-06T05:40:35;98482.61;;;22.68;68.05
80248;BME280;69560;52.206;21.018;2023-08-06T05:43:02;98478.27;;;22.72;68.02
80248;BME280;69560;52.206;21.018;2023-08-06T05:45:28;98471.55;;;22.76;68.10
80248;BME280;69560;52.206;21.018;2023-08-06T05:47:54;98465.81;;;22.82;68.04
80248;BME280;69560;52.206;21.018;2023-08-06T05:50:24;98463.21;;;22.87;68.09
80248;BME280;69560;52.206;21.018;2023-08-06T05:52:51;98461.43;;;22.93;67.84
80248;BME280;69560;52.206;21.018;2023-08-06T05:55:19;98455.05;;;23.00;67.90
80248;BME280;69560;52.206;21.018;2023-08-06T05:57:46;98452.92;;;23.05;67.74
80248;BME280;69560;52.206;21.018;2023-08-06T06:00:12;98451.09;;;23.11;67.54
80248;BME280;69560;52.206;21.018;2023-08-06T06:02:39;98450.05;;;23.14;67.49
80248;BME280;69560;52.206;21.018;2023-08-06T06:05:05;98451.11;;;23.17;67.42
80248;BME280;69560;52.206;21.018;2023-08-06T06:07:32;98455.66;;;23.19;67.14
80248;BME280;69560;52.206;21.018;2023-08-06T06:09:58;98453.52;;;23.20;67.01
80248;BME280;69560;52.206;21.018;2023-08-06T06:12:25;98449.13;;;23.23;67.00
80248;BME280;69560;52.206;21.018;2023-08-06T06:14:52;98448.23;;;23.25;66.91
80248;BME280;69560;52.206;21.018;2023-08-06T06:17:18;98450.50;;;23.30;66.96
80248;BME280;69560;52.206;21.018;2023-08-06T06:19:45;98444.57;;;23.35;66.89
80248;BME280;69560;52.206;21.018;2023-08-06T06:22:12;98432.16;;;23.38;66.73
80248;BME280;69560;52.206;21.018;2023-08-06T06:24:38;98430.53;;;23.39;66.67
80248;BME280;69560;52.206;21.018;2023-08-06T06:27:05;98424.52;;;23.44;66.52
80248;BME280;69560;52.206;21.018;2023-08-06T06:29:31;98428.23;;;23.52;66.42
80248;BME280;69560;52.206;21.018;2023-08-06T06:31:58;98421.21;;;23.59;66.41
80248;BME280;69560;52.206;21.018;2023-08-06T06:34:24;98412.89;;;23.68;66.47
80248;BME280;69560;52.206;21.018;2023-08-06T06:36:51;98411.46;;;23.76;66.25
80248;BME280;69560;52.206;21.018;2023-08-06T06:39:17;98416.00;;;23.76;65.71
80248;BME280;69560;52.206;21.018;2023-08-06T06:41:44;98409.29;;;23.74;65.39
80248;BME280;69560;52.206;21.018;2023-08-06T06:44:10;98403.69;;;23.75;65.52
80248;BME280;69560;52.206;21.018;2023-08-06T06:46:37;98406.52;;;23.81;65.45
80248;BME280;69560;52.206;21.018;2023-08-06T06:49:03;98404.06;;;23.82;65.37
80248;BME280;69560;52.206;21.018;2023-08-06T06:51:30;98398.00;;;23.85;65.29
80248;BME280;69560;52.206;21.018;2023-08-06T06:53:58;98398.33;;;23.92;65.35
80248;BME280;69560;52.206;21.018;2023-08-06T06:56:25;98398.95;;;23.99;65.03
80248;BME280;69560;52.206;21.018;2023-08-06T06:58:52;98403.37;;;24.05;65.11
80248;BME280;69560;52.206;21.018;2023-08-06T07:01:18;98404.94;;;24.09;64.94
80248;BME280;69560;52.206;21.018;2023-08-06T07:03:44;98400.76;;;24.14;65.00
80248;BME280;69560;52.206;21.018;2023-08-06T07:06:11;98405.48;;;24.14;64.53
80248;BME280;69560;52.206;21.018;2023-08-06T07:08:38;98406.24;;;24.09;64.37
80248;BME280;69560;52.206;21.018;2023-08-06T07:11:06;98407.27;;;24.11;64.46
80248;BME280;69560;52.206;21.018;2023-08-06T07:13:34;98404.34;;;24.17;64.53
80248;BME280;69560;52.206;21.018;2023-08-06T07:16:00;98401.81;;;24.24;64.31
80248;BME280;69560;52.206;21.018;2023-08-06T07:18:27;98403.50;;;24.29;64.25
80248;BME280;69560;52.206;21.018;2023-08-06T07:20:55;98399.14;;;24.32;64.11
80248;BME280;69560;52.206;21.018;2023-08-06T07:23:23;98397.77;;;24.36;64.04
80248;BME280;69560;52.206;21.018;2023-08-06T07:25:50;98393.89;;;24.41;63.93
80248;BME280;69560;52.206;21.018;2023-08-06T07:28:16;98394.41;;;24.49;63.89
80248;BME280;69560;52.206;21.018;2023-08-06T07:30:44;98397.63;;;24.54;63.70
80248;BME280;69560;52.206;21.018;2023-08-06T07:33:11;98398.11;;;24.55;63.72
80248;BME280;69560;52.206;21.018;2023-08-06T07:35:38;98399.76;;;24.63;63.77
80248;BME280;69560;52.206;21.018;2023-08-06T07:38:05;98396.55;;;24.75;63.79
80248;BME280;69560;52.206;21.018;2023-08-06T07:40:35;98396.77;;;24.85;63.60
80248;BME280;69560;52.206;21.018;2023-08-06T07:43:05;98393.48;;;24.91;63.36
80248;BME280;69560;52.206;21.018;2023-08-06T07:45:35;98389.14;;;24.98;63.25
80248;BME280;69560;52.206;21.018;2023-08-06T07:48:05;98389.11;;;25.06;63.14
80248;BME280;69560;52.206;21.018;2023-08-06T07:50:34;98390.64;;;25.16;63.21
80248;BME280;69560;52.206;21.018;2023-08-06T07:53:00;98392.09;;;25.29;63.02
80248;BME280;69560;52.206;21.018;2023-08-06T07:55:27;98387.28;;;25.40;62.95
80248;BME280;69560;52.206;21.018;2023-08-06T07:57:56;98387.12;;;25.54;62.83
80248;BME280;69560;52.206;21.018;2023-08-06T08:00:22;98384.26;;;25.68;62.70
80248;BME280;69560;52.206;21.018;2023-08-06T08:02:49;98384.21;;;25.81;62.50
80248;BME280;69560;52.206;21.018;2023-08-06T08:05:15;98380.77;;;25.88;62.28
80248;BME280;69560;52.206;21.018;2023-08-06T08:07:42;98375.66;;;25.95;61.96
80248;BME280;69560;52.206;21.018;2023-08-06T08:10:09;98373.38;;;25.98;61.75
80248;BME280;69560;52.206;21.018;2023-08-06T08:12:35;98373.79;;;26.02;61.63
80248;BME280;69560;52.206;21.018;2023-08-06T08:15:02;98373.80;;;26.06;61.45
80248;BME280;69560;52.206;21.018;2023-08-06T08:17:29;98365.04;;;26.08;61.31
80248;BME280;69560;52.206;21.018;2023-08-06T08:19:56;98369.16;;;26.12;61.15
80248;BME280;69560;52.206;21.018;2023-08-06T08:22:22;98363.48;;;26.14;61.08
80248;BME280;69560;52.206;21.018;2023-08-06T08:24:49;98364.77;;;26.22;61.11
80248;BME280;69560;52.206;21.018;2023-08-06T08:27:15;98365.79;;;26.31;61.11
80248;BME280;69560;52.206;21.018;2023-08-06T08:29:42;98364.21;;;26.43;61.12
80248;BME280;69560;52.206;21.018;2023-08-06T08:32:08;98356.73;;;26.56;61.01
80248;BME280;69560;52.206;21.018;2023-08-06T08:34:38;98359.88;;;26.72;60.99
80248;BME280;69560;52.206;21.018;2023-08-06T08:37:04;98354.20;;;26.86;60.70
80248;BME280;69560;52.206;21.018;2023-08-06T08:39:32;98350.12;;;26.97;60.46
80248;BME280;69560;52.206;21.018;2023-08-06T08:41:59;98351.83;;;27.09;60.04
80248;BME280;69560;52.206;21.018;2023-08-06T08:44:26;98349.65;;;27.17;59.85
80248;BME280;69560;52.206;21.018;2023-08-06T08:46:57;98347.16;;;27.28;59.82
80248;BME280;69560;52.206;21.018;2023-08-06T08:49:24;98352.25;;;27.40;59.69
80248;BME280;69560;52.206;21.018;2023-08-06T08:51:53;98343.13;;;27.50;59.28
80248;BME280;69560;52.206;21.018;2023-08-06T08:54:23;98343.81;;;27.58;59.09
80248;BME280;69560;52.206;21.018;2023-08-06T08:56:52;98337.39;;;27.71;58.89
80248;BME280;69560;52.206;21.018;2023-08-06T08:59:19;98337.77;;;27.82;58.66
80248;BME280;69560;52.206;21.018;2023-08-06T09:01:47;98332.23;;;27.88;58.25
80248;BME280;69560;52.206;21.018;2023-08-06T09:04:18;98325.15;;;27.91;58.08
80248;BME280;69560;52.206;21.018;2023-08-06T09:06:47;98324.83;;;27.96;57.85
80248;BME280;69560;52.206;21.018;2023-08-06T09:09:21;98324.86;;;27.99;57.42
80248;BME280;69560;52.206;21.018;2023-08-06T09:11:48;98323.13;;;28.01;57.34
80248;BME280;69560;52.206;21.018;2023-08-06T09:14:16;98324.67;;;28.07;57.25
80248;BME280;69560;52.206;21.018;2023-08-06T09:16:44;98317.39;;;28.16;56.95
80248;BME280;69560;52.206;21.018;2023-08-06T09:19:11;98312.02;;;28.24;56.68
80248;BME280;69560;52.206;21.018;2023-08-06T09:21:39;98311.05;;;28.34;56.74
80248;BME280;69560;52.206;21.018;2023-08-06T09:24:11;98303.13;;;28.46;56.82
80248;BME280;69560;52.206;21.018;2023-08-06T09:26:42;98301.06;;;28.62;56.75
80248;BME280;69560;52.206;21.018;2023-08-06T09:29:10;98299.63;;;28.77;56.54
80248;BME280;69560;52.206;21.018;2023-08-06T09:31:42;98300.47;;;28.89;56.20
80248;BME280;69560;52.206;21.018;2023-08-06T09:34:16;98302.71;;;28.96;55.60
80248;BME280;69560;52.206;21.018;2023-08-06T09:36:46;98296.80;;;28.98;55.22
80248;BME280;69560;52.206;21.018;2023-08-06T09:39:36;98296.59;;;29.03;55.16
80248;BME280;69560;52.206;21.018;2023-08-06T09:42:02;98294.41;;;29.12;54.96
80248;BME280;69560;52.206;21.018;2023-08-06T09:44:30;98294.36;;;29.30;55.07
80248;BME280;69560;52.206;21.018;2023-08-06T09:46:58;98298.98;;;29.58;55.24
80248;BME280;69560;52.206;21.018;2023-08-06T09:49:48;98287.83;;;29.89;54.89
80248;BME280;69560;52.206;21.018;2023-08-06T09:52:17;98290.20;;;30.24;54.32
80248;BME280;69560;52.206;21.018;2023-08-06T09:54:47;98282.13;;;30.52;53.98
80248;BME280;69560;52.206;21.018;2023-08-06T09:57:14;98287.16;;;30.83;53.77
80248;BME280;69560;52.206;21.018;2023-08-06T09:59:42;98283.73;;;31.15;53.27
80248;BME280;69560;52.206;21.018;2023-08-06T10:02:13;98279.96;;;31.41;52.64
80248;BME280;69560;52.206;21.018;2023-08-06T10:04:40;98277.62;;;31.66;52.28
80248;BME280;69560;52.206;21.018;2023-08-06T10:07:08;98270.48;;;31.93;51.95
80248;BME280;69560;52.206;21.018;2023-08-06T10:09:35;98261.44;;;32.16;51.32
80248;BME280;69560;52.206;21.018;2023-08-06T10:12:02;98264.36;;;32.32;50.54
80248;BME280;69560;52.206;21.018;2023-08-06T10:14:32;98258.89;;;32.45;50.09
80248;BME280;69560;52.206;21.018;2023-08-06T10:17:00;98259.02;;;32.60;49.75
80248;BME280;69560;52.206;21.018;2023-08-06T10:19:28;98257.73;;;32.77;49.23
80248;BME280;69560;52.206;21.018;2023-08-06T10:22:15;98256.75;;;32.95;48.97
80248;BME280;69560;52.206;21.018;2023-08-06T10:27:13;98245.10;;;33.28;47.98
80248;BME280;69560;52.206;21.018;2023-08-06T10:29:40;98242.29;;;33.37;47.32
80248;BME280;69560;52.206;21.018;2023-08-06T10:32:06;98250.89;;;33.52;46.89
80248;BME280;69560;52.206;21.018;2023-08-06T10:37:34;98235.27;;;33.60;45.88
80248;BME280;69560;52.206;21.018;2023-08-06T10:40:06;98240.55;;;33.56;45.33
80248;BME280;69560;52.206;21.018;2023-08-06T10:42:33;98227.45;;;33.46;45.05
80248;BME280;69560;52.206;21.018;2023-08-06T10:45:16;98229.58;;;33.25;44.52
80248;BME280;69560;52.206;21.018;2023-08-06T10:47:43;98227.39;;;33.01;44.11
80248;BME280;69560;52.206;21.018;2023-08-06T10:50:15;98224.98;;;32.79;44.15
80248;BME280;69560;52.206;21.018;2023-08-06T10:52:45;98222.55;;;32.75;44.69
80248;BME280;69560;52.206;21.018;2023-08-06T10:55:13;98215.99;;;32.81;44.75
80248;BME280;69560;52.206;21.018;2023-08-06T10:57:40;98214.20;;;32.88;44.93
80248;BME280;69560;52.206;21.018;2023-08-06T11:00:08;98213.66;;;32.96;44.65
80248;BME280;69560;52.206;21.018;2023-08-06T11:02:35;98207.73;;;33.07;44.64
80248;BME280;69560;52.206;21.018;2023-08-06T11:05:09;98204.28;;;33.20;44.59
80248;BME280;69560;52.206;21.018;2023-08-06T11:07:36;98201.04;;;33.27;44.02
80248;BME280;69560;52.206;21.018;2023-08-06T11:10:05;98189.95;;;33.25;43.61
80248;BME280;69560;52.206;21.018;2023-08-06T11:12:32;98197.15;;;33.18;43.46
80248;BME280;69560;52.206;21.018;2023-08-06T11:15:00;98190.83;;;33.18;43.31
80248;BME280;69560;52.206;21.018;2023-08-06T11:17:27;98182.23;;;33.25;43.23
80248;BME280;69560;52.206;21.018;2023-08-06T11:19:55;98177.20;;;33.19;42.40
80248;BME280;69560;52.206;21.018;2023-08-06T11:22:22;98176.33;;;33.01;42.58
80248;BME280;69560;52.206;21.018;2023-08-06T11:24:48;98171.23;;;32.90;42.39
80248;BME280;69560;52.206;21.018;2023-08-06T11:27:16;98168.80;;;32.71;42.42
80248;BME280;69560;52.206;21.018;2023-08-06T11:29:44;98166.85;;;32.61;42.65
80248;BME280;69560;52.206;21.018;2023-08-06T11:32:11;98169.09;;;32.49;42.60
80248;BME280;69560;52.206;21.018;2023-08-06T11:34:39;98164.20;;;32.40;42.53
80248;BME280;69560;52.206;21.018;2023-08-06T11:37:07;98158.98;;;32.43;42.49
80248;BME280;69560;52.206;21.018;2023-08-06T11:39:35;98159.37;;;32.38;42.56
80248;BME280;69560;52.206;21.018;2023-08-06T11:42:04;98152.31;;;32.35;42.18
80248;BME280;69560;52.206;21.018;2023-08-06T11:44:32;98148.25;;;32.34;42.28
80248;BME280;69560;52.206;21.018;2023-08-06T11:47:03;98136.94;;;32.36;42.53
80248;BME280;69560;52.206;21.018;2023-08-06T11:52:19;98136.44;;;32.66;42.67
80248;BME280;69560;52.206;21.018;2023-08-06T11:54:49;98132.41;;;32.86;42.46
80248;BME280;69560;52.206;21.018;2023-08-06T11:57:29;98134.56;;;32.98;42.28
80248;BME280;69560;52.206;21.018;2023-08-06T12:00:12;98130.39;;;33.11;42.03
80248;BME280;69560;52.206;21.018;2023-08-06T12:02:40;98125.75;;;33.16;41.56
80248;BME280;69560;52.206;21.018;2023-08-06T12:05:15;98121.21;;;33.26;41.31
80248;BME280;69560;52.206;21.018;2023-08-06T12:07:44;98126.92;;;33.29;40.81
80248;BME280;69560;52.206;21.018;2023-08-06T12:10:12;98128.54;;;33.26;40.38
80248;BME280;69560;52.206;21.018;2023-08-06T12:12:39;98129.82;;;33.17;40.20
80248;BME280;69560;52.206;21.018;2023-08-06T12:15:07;98126.83;;;32.98;39.68
80248;BME280;69560;52.206;21.018;2023-08-06T12:17:34;98128.79;;;32.75;39.89
80248;BME280;69560;52.206;21.018;2023-08-06T12:20:01;98122.39;;;32.62;39.90
80248;BME280;69560;52.206;21.018;2023-08-06T12:22:28;98123.09;;;32.53;40.32
80248;BME280;69560;52.206;21.018;2023-08-06T12:24:55;98118.64;;;32.44;40.30
80248;BME280;69560;52.206;21.018;2023-08-06T12:27:22;98125.63;;;32.31;40.20
80248;BME280;69560;52.206;21.018;2023-08-06T12:29:48;98120.55;;;32.14;40.26
80248;BME280;69560;52.206;21.018;2023-08-06T12:32:15;98115.59;;;32.05;40.44
80248;BME280;69560;52.206;21.018;2023-08-06T12:34:42;98120.45;;;31.95;40.62
80248;BME280;69560;52.206;21.018;2023-08-06T12:37:09;98128.46;;;31.84;40.69
80248;BME280;69560;52.206;21.018;2023-08-06T12:39:36;98128.70;;;31.72;40.75
80248;BME280;69560;52.206;21.018;2023-08-06T12:42:04;98132.46;;;31.61;40.89
80248;BME280;69560;52.206;21.018;2023-08-06T12:44:32;98115.14;;;31.47;40.83
80248;BME280;69560;52.206;21.018;2023-08-06T12:46:59;98114.61;;;31.33;41.03
80248;BME280;69560;52.206;21.018;2023-08-06T12:49:26;98106.73;;;31.25;41.25
80248;BME280;69560;52.206;21.018;2023-08-06T12:51:53;98107.40;;;31.21;41.54
80248;BME280;69560;52.206;21.018;2023-08-06T12:54:20;98115.16;;;31.17;41.63
80248;BME280;69560;52.206;21.018;2023-08-06T12:56:48;98114.88;;;31.16;41.76
80248;BME280;69560;52.206;21.018;2023-08-06T12:59:16;98122.91;;;31.13;41.81
80248;BME280;69560;52.206;21.018;2023-08-06T13:01:43;98129.48;;;31.13;41.75
80248;BME280;69560;52.206;21.018;2023-08-06T13:04:10;98138.08;;;31.11;41.76
80248;BME280;69560;52.206;21.018;2023-08-06T13:06:37;98130.98;;;31.05;41.60